createdAt,value
2019-02-12T00:04:55.696Z,101700.34
2019-02-12T00:10:32.518Z,101707.09
2019-02-12T00:13:00.947Z,101709.81
2019-02-12T00:15:29.376Z,101724.05
2019-02-12T00:17:57.824Z,101720.25
2019-02-12T00:20:26.253Z,101725.94
2019-02-12T00:22:54.674Z,101733.70
2019-02-12T00:27:57.225Z,101739.85
2019-02-12T00:30:25.721Z,101742.09
2019-02-12T00:32:54.148Z,101740.28
2019-02-12T00:35:22.596Z,101748.80
2019-02-12T00:40:24.711Z,101764.38
2019-02-12T00:42:53.136Z,101764.53
2019-02-12T00:45:21.582Z,101758.45
2019-02-12T00:47:50.013Z,101751.66
2019-02-12T00:50:18.431Z,101739.85
2019-02-12T00:53:06.456Z,101732.17
2019-02-12T00:55:34.893Z,101732.06
2019-02-12T00:58:03.324Z,101729.75
2019-02-12T01:03:25.060Z,101732.43
2019-02-12T01:05:53.516Z,101735.56
2019-02-12T01:08:21.944Z,101734.57
2019-02-12T01:10:50.368Z,101732.91
2019-02-12T01:13:18.822Z,101740.47
2019-02-12T01:18:34.782Z,101749.72
2019-02-12T01:23:50.739Z,101758.38
2019-02-12T01:26:19.168Z,101768.37
2019-02-12T01:28:47.614Z,101761.88
2019-02-12T01:33:50.232Z,101769.60
2019-02-12T01:36:18.663Z,101771.92
2019-02-12T01:41:20.910Z,101782.42
2019-02-12T01:43:49.334Z,101779.78
2019-02-12T01:46:17.797Z,101777.00
2019-02-12T01:48:46.221Z,101784.31
2019-02-12T01:51:14.648Z,101791.14
2019-02-12T01:53:43.156Z,101786.22
2019-02-12T01:56:11.579Z,101791.02
2019-02-12T01:58:40.008Z,101792.46
2019-02-12T02:01:27.788Z,101787.47
2019-02-12T02:03:56.221Z,101794.70
2019-02-12T02:06:24.649Z,101787.97
2019-02-12T02:11:26.672Z,101791.54
2019-02-12T02:13:55.130Z,101789.67
2019-02-12T02:16:23.561Z,101791.83
2019-02-12T02:18:52.001Z,101793.01
2019-02-12T02:21:20.464Z,101786.98
2019-02-12T02:24:28.800Z,101796.77
2019-02-12T02:27:16.652Z,101801.53
2019-02-12T02:29:45.078Z,101803.05
2019-02-12T02:32:13.504Z,101800.03
2019-02-12T02:37:16.022Z,101789.36
2019-02-12T02:39:44.485Z,101788.12
2019-02-12T02:42:12.911Z,101782.84
2019-02-12T02:44:41.355Z,101789.22
2019-02-12T02:47:29.206Z,101797.52
2019-02-12T02:49:57.628Z,101805.50
2019-02-12T02:52:26.054Z,101800.60
2019-02-12T02:54:54.510Z,101811.21
2019-02-12T02:57:22.929Z,101818.31
2019-02-12T02:59:51.356Z,101822.70
2019-02-12T03:02:19.815Z,101827.23
2019-02-12T03:04:48.239Z,101824.73
2019-02-12T03:07:16.682Z,101829.28
2019-02-12T03:12:38.820Z,101829.22
2019-02-12T03:15:47.278Z,101825.57
2019-02-12T03:18:15.731Z,101834.41
2019-02-12T03:20:44.159Z,101834.61
2019-02-12T03:23:12.699Z,101839.98
2019-02-12T03:25:41.126Z,101836.11
2019-02-12T03:28:09.548Z,101835.73
2019-02-12T03:30:38.020Z,101832.88
2019-02-12T03:33:06.508Z,101824.39
2019-02-12T03:35:34.929Z,101827.04
2019-02-12T03:38:03.421Z,101829.16
2019-02-12T03:40:31.844Z,101825.15
2019-02-12T03:43:00.268Z,101819.97
2019-02-12T03:45:28.871Z,101824.70
2019-02-12T03:47:57.301Z,101823.91
2019-02-12T03:50:25.729Z,101825.92
2019-02-12T03:52:54.219Z,101822.80
2019-02-12T03:55:22.708Z,101832.66
2019-02-12T03:57:51.668Z,101843.80
2019-02-12T04:00:20.273Z,101844.07
2019-02-12T04:03:05.853Z,101843.23
2019-02-12T04:05:35.533Z,101846.02
2019-02-12T04:08:04.301Z,101855.53
2019-02-12T04:10:32.737Z,101858.27
2019-02-12T04:13:01.179Z,101864.14
2019-02-12T04:15:29.595Z,101864.13
2019-02-12T04:17:58.110Z,101874.91
2019-02-12T04:20:26.975Z,101876.67
2019-02-12T04:22:55.469Z,101872.98
2019-02-12T04:25:23.960Z,101871.45
2019-02-12T04:27:52.432Z,101870.97
2019-02-12T04:30:20.856Z,101874.61
2019-02-12T04:32:49.280Z,101872.76
2019-02-12T04:35:17.805Z,101882.19
2019-02-12T04:37:46.229Z,101881.56
2019-02-12T04:40:14.656Z,101880.60
2019-02-12T04:42:43.172Z,101872.10
2019-02-12T04:45:12.157Z,101869.90
2019-02-12T04:47:40.660Z,101876.61
2019-02-12T04:50:15.801Z,101871.64
2019-02-12T04:52:44.228Z,101870.91
2019-02-12T04:55:13.092Z,101871.98
2019-02-12T04:57:41.656Z,101864.27
2019-02-12T05:00:17.425Z,101863.42
2019-02-12T05:02:46.059Z,101861.72
2019-02-12T05:05:14.474Z,101858.31
2019-02-12T05:07:42.904Z,101852.02
2019-02-12T05:10:23.354Z,101853.77
2019-02-12T05:12:51.779Z,101853.30
2019-02-12T05:15:20.205Z,101851.89
2019-02-12T05:17:48.695Z,101852.02
2019-02-12T05:20:28.965Z,101859.47
2019-02-12T05:23:06.766Z,101862.38
2019-02-12T05:25:40.690Z,101866.53
2019-02-12T05:28:16.319Z,101861.45
2019-02-12T05:30:53.851Z,101869.70
2019-02-12T05:33:34.310Z,101869.53
2019-02-12T05:36:12.327Z,101868.81
2019-02-12T05:39:02.987Z,101870.47
2019-02-12T05:41:42.253Z,101871.93
2019-02-12T05:44:31.313Z,101872.10
2019-02-12T05:50:01.345Z,101887.37
2019-02-12T05:52:38.891Z,101890.88
2019-02-12T05:55:11.026Z,101897.45
2019-02-12T05:58:03.672Z,101887.96
2019-02-12T06:00:51.006Z,101887.00
2019-02-12T06:03:21.917Z,101884.58
2019-02-12T06:05:57.465Z,101876.92
2019-02-12T06:08:30.659Z,101886.55
2019-02-12T06:11:06.917Z,101885.23
2019-02-12T06:13:41.445Z,101896.75
2019-02-12T06:16:10.455Z,101893.58
2019-02-12T06:18:38.958Z,101898.37
2019-02-12T06:21:07.383Z,101902.27
2019-02-12T06:23:35.872Z,101897.36
2019-02-12T06:26:04.295Z,101901.92
2019-02-12T06:28:32.723Z,101906.42
2019-02-12T06:31:01.249Z,101906.09
2019-02-12T06:33:29.673Z,101906.13
2019-02-12T06:35:58.101Z,101911.81
2019-02-12T06:38:26.637Z,101917.80
2019-02-12T06:40:55.057Z,101923.58
2019-02-12T06:43:23.488Z,101923.97
2019-02-12T06:45:51.964Z,101933.27
2019-02-12T06:48:20.394Z,101928.41
2019-02-12T06:50:48.820Z,101932.11
2019-02-12T06:53:17.364Z,101932.45
2019-02-12T06:55:45.788Z,101932.47
2019-02-12T06:58:14.218Z,101933.52
2019-02-12T07:00:42.712Z,101934.33
2019-02-12T07:03:13.947Z,101936.06
2019-02-12T07:06:00.967Z,101939.91
2019-02-12T07:08:49.149Z,101942.70
2019-02-12T07:11:55.505Z,101946.09
2019-02-12T07:14:41.901Z,101946.18
2019-02-12T07:17:16.191Z,101955.41
2019-02-12T07:19:50.102Z,101962.30
2019-02-12T07:22:46.104Z,101961.55
2019-02-12T07:25:23.194Z,101967.31
2019-02-12T07:28:09.744Z,101967.27
2019-02-12T07:30:53.372Z,101967.94
2019-02-12T07:33:27.977Z,101978.14
2019-02-12T07:35:59.483Z,101979.79
2019-02-12T07:38:39.681Z,101982.03
2019-02-12T07:41:23.076Z,101988.81
2019-02-12T07:43:57.340Z,101989.49
2019-02-12T07:46:40.888Z,101990.42
2019-02-12T07:49:27.664Z,101990.52
2019-02-12T07:51:59.143Z,101992.36
2019-02-12T07:54:58.148Z,102000.82
2019-02-12T07:57:49.431Z,102005.80
2019-02-12T08:00:26.387Z,102009.04
2019-02-12T08:03:14.397Z,102009.93
2019-02-12T08:05:54.188Z,102014.92
2019-02-12T08:08:34.564Z,102016.64
2019-02-12T08:11:21.352Z,102022.22
2019-02-12T08:13:52.827Z,102026.16
2019-02-12T08:16:27.050Z,102029.44
2019-02-12T08:19:15.388Z,102032.06
2019-02-12T08:22:04.852Z,102029.09
2019-02-12T08:24:48.179Z,102026.63
2019-02-12T08:27:40.852Z,102038.10
2019-02-12T08:30:12.332Z,102038.48
2019-02-12T08:32:46.640Z,102038.64
2019-02-12T08:35:33.100Z,102035.38
2019-02-12T08:38:37.840Z,102046.59
2019-02-12T08:41:24.516Z,102046.98
2019-02-12T08:44:12.917Z,102048.87
2019-02-12T08:47:08.544Z,102054.23
2019-02-12T08:49:45.640Z,102059.04
2019-02-12T08:52:20.130Z,102063.73
2019-02-12T08:54:51.639Z,102058.55
2019-02-12T08:57:32.234Z,102059.86
2019-02-12T09:00:18.719Z,102064.50
2019-02-12T09:03:09.856Z,102065.42
2019-02-12T09:05:56.652Z,102062.10
2019-02-12T09:08:28.139Z,102062.26
2019-02-12T09:11:17.902Z,102064.83
2019-02-12T09:13:49.402Z,102060.48
2019-02-12T09:16:35.814Z,102063.81
2019-02-12T09:19:42.850Z,102070.39
2019-02-12T09:22:49.890Z,102071.88
2019-02-12T09:25:58.220Z,102073.28
2019-02-12T09:29:06.733Z,102077.66
2019-02-12T09:32:15.146Z,102077.66
2019-02-12T09:35:23.595Z,102081.95
2019-02-12T09:38:32.026Z,102081.39
2019-02-12T09:41:39.112Z,102086.00
2019-02-12T09:44:46.132Z,102092.22
2019-02-12T09:47:54.507Z,102086.22
2019-02-12T09:51:02.853Z,102098.17
2019-02-12T09:54:11.327Z,102100.08
2019-02-12T09:57:18.347Z,102093.23
2019-02-12T10:00:26.779Z,102093.39
2019-02-12T10:03:35.152Z,102093.78
2019-02-12T10:06:43.555Z,102090.56
2019-02-12T10:09:51.909Z,102102.84
2019-02-12T10:12:59.103Z,102109.80
2019-02-12T10:16:06.115Z,102116.95
2019-02-12T10:19:13.522Z,102121.54
2019-02-12T10:22:21.862Z,102122.74
2019-02-12T10:25:30.524Z,102123.80
2019-02-12T10:28:48.384Z,102119.24
2019-02-12T10:39:50.314Z,102116.02
2019-02-12T10:44:52.228Z,102121.86
2019-02-12T10:47:20.656Z,102126.08
2019-02-12T10:49:49.151Z,102130.93
2019-02-12T10:52:17.581Z,102139.34
2019-02-12T10:55:05.227Z,102141.18
2019-02-12T10:57:33.640Z,102140.69
2019-02-12T11:00:02.073Z,102140.80
2019-02-12T11:03:10.510Z,102139.90
2019-02-12T11:05:58.125Z,102137.55
2019-02-12T11:08:26.588Z,102139.73
2019-02-12T11:10:55.016Z,102145.64
2019-02-12T11:13:23.438Z,102136.39
2019-02-12T11:18:26.277Z,102141.18
2019-02-12T11:20:54.737Z,102135.88
2019-02-12T11:23:23.235Z,102139.41
2019-02-12T11:25:51.656Z,102138.87
2019-02-12T11:28:20.121Z,102136.26
2019-02-12T11:30:48.543Z,102136.21
2019-02-12T11:33:16.970Z,102134.44
2019-02-12T11:38:39.662Z,102127.34
2019-02-12T11:41:08.101Z,102133.39
2019-02-12T11:43:36.525Z,102131.06
2019-02-12T11:48:39.274Z,102123.25
2019-02-12T11:51:07.769Z,102120.58
2019-02-12T11:53:36.211Z,102119.39
2019-02-12T11:56:23.860Z,102119.30
2019-02-12T11:58:52.288Z,102122.20
2019-02-12T12:06:43.653Z,102124.89
2019-02-12T12:11:45.684Z,102115.31
2019-02-12T12:14:14.173Z,102123.75
2019-02-12T12:16:42.684Z,102119.28
2019-02-12T12:19:11.149Z,102113.32
2019-02-12T12:21:39.598Z,102115.25
2019-02-12T12:24:27.209Z,102108.67
2019-02-12T12:27:15.083Z,102110.69
2019-02-12T12:29:43.484Z,102100.82
2019-02-12T12:32:11.907Z,102103.12
2019-02-12T12:34:59.632Z,102102.89
2019-02-12T12:37:47.376Z,102101.70
2019-02-12T12:40:15.868Z,102102.64
2019-02-12T12:42:44.297Z,102103.33
2019-02-12T12:45:52.669Z,102109.45
2019-02-12T12:48:21.128Z,102110.30
2019-02-12T12:50:49.530Z,102114.44
2019-02-12T12:55:52.471Z,102116.88
2019-02-12T12:58:20.899Z,102115.64
2019-02-12T13:00:49.417Z,102116.42
2019-02-12T13:03:17.840Z,102117.60
2019-02-12T13:05:46.267Z,102122.30
2019-02-12T13:08:14.726Z,102124.58
2019-02-12T13:11:02.345Z,102119.18
2019-02-12T13:13:30.796Z,102111.20
2019-02-12T13:15:59.221Z,102098.72
2019-02-12T13:18:27.656Z,102112.70
2019-02-12T13:20:56.103Z,102106.70
2019-02-12T13:23:24.528Z,102112.46
2019-02-12T13:25:52.958Z,102112.46
2019-02-12T13:30:55.009Z,102105.41
2019-02-12T13:33:42.720Z,102105.57
2019-02-12T13:36:30.473Z,102107.14
2019-02-12T13:41:33.185Z,102102.45
2019-02-12T13:44:20.961Z,102105.38
2019-02-12T13:47:08.704Z,102101.61
2019-02-12T13:49:37.192Z,102102.59
2019-02-12T13:52:05.622Z,102103.81
2019-02-12T13:57:54.671Z,102109.97
2019-02-12T14:00:23.128Z,102115.05
2019-02-12T14:02:51.551Z,102116.71
2019-02-12T14:08:13.131Z,102120.30
2019-02-12T14:10:41.552Z,102116.70
2019-02-12T14:15:43.607Z,102120.28
2019-02-12T14:18:12.062Z,102119.77
2019-02-12T14:20:40.483Z,102118.13
2019-02-12T14:23:08.915Z,102115.51
2019-02-12T14:25:37.418Z,102118.86
2019-02-12T14:28:45.767Z,102121.16
2019-02-12T14:31:14.217Z,102121.55
2019-02-12T14:33:42.639Z,102109.38
2019-02-12T14:36:30.283Z,102110.38
2019-02-12T14:38:58.707Z,102105.39
2019-02-12T14:41:27.141Z,102113.34
2019-02-12T14:44:14.794Z,102114.56
2019-02-12T14:46:43.236Z,102103.17
2019-02-12T14:49:51.669Z,102100.70
2019-02-12T14:52:20.095Z,102100.66
2019-02-12T14:54:48.540Z,102103.06
2019-02-12T14:57:17.071Z,102102.02
2019-02-12T14:59:45.499Z,102107.84
2019-02-12T15:13:10.610Z,102109.38
2019-02-12T15:18:12.715Z,102113.91
2019-02-12T15:21:00.469Z,102106.86
2019-02-12T15:23:28.931Z,102105.55
2019-02-12T15:25:57.360Z,102103.86
2019-02-12T15:28:25.779Z,102111.66
2019-02-12T15:30:54.308Z,102110.22
2019-02-12T15:33:22.733Z,102111.87
2019-02-12T15:35:51.161Z,102113.45
2019-02-12T15:38:19.647Z,102110.78
2019-02-12T15:40:48.070Z,102115.64
2019-02-12T15:43:16.496Z,102105.84
2019-02-12T15:48:18.988Z,102103.81
2019-02-12T15:50:47.417Z,102108.14
2019-02-12T15:55:51.550Z,102103.86
2019-02-12T15:58:20.223Z,102106.42
2019-02-12T16:00:48.648Z,102107.27
2019-02-12T16:03:18.380Z,102111.14
2019-02-12T16:05:47.247Z,102110.44
2019-02-12T16:08:15.671Z,102116.20
2019-02-12T16:10:44.095Z,102114.87
2019-02-12T16:13:13.687Z,102117.87
2019-02-12T16:15:44.819Z,102119.69
2019-02-12T16:18:12.836Z,102129.80
2019-02-12T16:20:41.312Z,102130.70
2019-02-12T16:23:09.736Z,102140.87
2019-02-12T16:25:38.161Z,102142.45
2019-02-12T16:28:06.619Z,102152.27
2019-02-12T16:30:35.035Z,102147.45
2019-02-12T16:33:03.460Z,102146.73
2019-02-12T16:35:31.911Z,102153.95
2019-02-12T16:38:19.542Z,102150.17
2019-02-12T16:40:48.006Z,102146.13
2019-02-12T16:43:16.432Z,102152.69
2019-02-12T16:46:25.117Z,102150.67
2019-02-12T16:48:53.540Z,102152.53
2019-02-12T16:51:21.997Z,102151.75
2019-02-12T16:53:50.451Z,102158.94
2019-02-12T16:56:38.067Z,102164.38
2019-02-12T16:59:25.720Z,102168.70
2019-02-12T17:01:54.144Z,102166.73
2019-02-12T17:04:22.568Z,102171.45
2019-02-12T17:07:31.139Z,102170.33
2019-02-12T17:09:59.576Z,102171.88
2019-02-12T17:12:28.000Z,102167.48
2019-02-12T17:14:56.454Z,102177.52
2019-02-12T17:17:44.202Z,102175.14
2019-02-12T17:20:31.996Z,102179.06
2019-02-12T17:23:00.419Z,102176.92
2019-02-12T17:25:28.844Z,102178.19
2019-02-12T17:30:30.770Z,102184.59
2019-02-12T17:32:59.192Z,102190.28
2019-02-12T17:35:46.883Z,102196.45
2019-02-12T17:41:23.739Z,102207.30
2019-02-12T17:43:52.163Z,102203.75
2019-02-12T17:46:40.147Z,102206.73
2019-02-12T17:49:08.581Z,102214.61
2019-02-12T17:51:37.003Z,102213.94
2019-02-12T17:54:05.473Z,102216.66
2019-02-12T17:56:33.899Z,102221.59
2019-02-12T17:59:21.677Z,102224.64
2019-02-12T18:01:50.100Z,102224.20
2019-02-12T18:04:37.895Z,102219.38
2019-02-12T18:07:06.319Z,102216.63
2019-02-12T18:09:34.744Z,102220.61
2019-02-12T18:12:22.525Z,102211.98
2019-02-12T18:14:50.947Z,102227.83
2019-02-12T18:17:38.589Z,102222.77
2019-02-12T18:20:46.929Z,102228.20
2019-02-12T18:23:15.399Z,102237.11
2019-02-12T18:25:43.826Z,102235.16
2019-02-12T18:28:31.500Z,102242.17
2019-02-12T18:30:59.929Z,102249.50
2019-02-12T18:33:28.361Z,102257.64
2019-02-12T18:38:30.757Z,102251.53
2019-02-12T18:43:33.054Z,102254.34
2019-02-12T18:46:21.034Z,102255.27
2019-02-12T18:48:49.509Z,102256.23
2019-02-12T18:51:20.778Z,102244.67
2019-02-12T18:54:08.583Z,102247.08
2019-02-12T18:56:41.584Z,102249.61
2019-02-12T18:59:07.201Z,102253.54
2019-02-12T19:04:09.999Z,102257.45
2019-02-12T19:06:57.756Z,102266.55
2019-02-12T19:09:26.211Z,102266.12
2019-02-12T19:11:54.716Z,102256.94
2019-02-12T19:14:23.168Z,102263.03
2019-02-12T19:19:59.729Z,102264.42
2019-02-12T19:22:47.519Z,102268.75
2019-02-12T19:28:28.589Z,102268.50
2019-02-12T19:31:16.371Z,102272.69
2019-02-12T19:34:04.158Z,102275.66
2019-02-12T19:36:52.105Z,102269.80
2019-02-12T19:40:00.486Z,102269.66
2019-02-12T19:48:30.153Z,102278.50
2019-02-12T19:51:17.877Z,102281.30
2019-02-12T19:54:05.713Z,102282.36
2019-02-12T19:56:58.333Z,102275.77
2019-02-12T19:59:23.620Z,102283.52
2019-02-12T20:02:11.424Z,102289.47
2019-02-12T20:04:59.268Z,102281.78
2019-02-12T20:07:46.965Z,102297.33
2019-02-12T20:10:55.397Z,102306.90
2019-02-12T20:13:43.060Z,102308.40
2019-02-12T20:19:23.714Z,102313.94
2019-02-12T20:24:45.454Z,102309.13
2019-02-12T20:33:21.468Z,102318.41
2019-02-12T20:36:09.232Z,102316.56
2019-02-12T20:38:56.945Z,102312.16
2019-02-12T20:41:44.785Z,102302.30
2019-02-12T20:44:32.638Z,102306.17
2019-02-12T20:47:20.495Z,102308.84
2019-02-12T20:50:08.300Z,102297.50
2019-02-12T20:52:56.196Z,102291.16
2019-02-12T20:55:43.998Z,102297.39
2019-02-12T20:58:31.845Z,102294.19
2019-02-12T21:01:19.626Z,102297.41
2019-02-12T21:03:48.155Z,102312.47
2019-02-12T21:06:35.941Z,102315.17
2019-02-12T21:09:43.051Z,102319.84
2019-02-12T21:12:30.868Z,102313.80
2019-02-12T21:15:18.695Z,102322.27
2019-02-12T21:18:06.405Z,102318.33
2019-02-12T21:20:34.904Z,102316.34
2019-02-12T21:23:03.366Z,102319.38
2019-02-12T21:25:51.214Z,102317.08
2019-02-12T21:36:42.021Z,102316.27
2019-02-12T21:44:57.717Z,102314.02
2019-02-12T21:47:26.188Z,102314.61
2019-02-12T21:50:13.979Z,102321.84
2019-02-12T21:53:01.796Z,102320.55
2019-02-12T21:55:30.241Z,102331.63
2019-02-12T21:57:58.876Z,102331.55
2019-02-12T22:00:46.416Z,102336.18
2019-02-12T22:03:14.840Z,102331.44
2019-02-12T22:05:43.267Z,102328.95
2019-02-12T22:08:11.744Z,102332.09
2019-02-12T22:10:46.244Z,102324.19
2019-02-12T22:13:10.312Z,102317.34
2019-02-12T22:15:38.855Z,102319.64
2019-02-12T22:18:07.280Z,102324.32
2019-02-12T22:20:35.996Z,102326.22
2019-02-12T22:23:04.563Z,102327.77
2019-02-12T22:25:52.620Z,102325.37
2019-02-12T22:28:21.082Z,102321.98
2019-02-12T22:30:49.508Z,102322.20
2019-02-12T22:33:17.936Z,102320.86
2019-02-12T22:35:46.772Z,102328.91
2019-02-12T22:38:15.292Z,102329.06
2019-02-12T22:40:43.722Z,102329.31
2019-02-12T22:43:12.176Z,102324.94
2019-02-12T22:45:40.716Z,102322.98
2019-02-12T22:48:09.240Z,102325.02
2019-02-12T22:50:57.233Z,102321.27
2019-02-12T22:53:25.711Z,102320.42
2019-02-12T22:55:54.088Z,102325.58
2019-02-12T22:58:22.971Z,102327.50
2019-02-12T23:04:00.511Z,102319.68
2019-02-12T23:06:29.012Z,102302.71
2019-02-12T23:08:57.525Z,102308.46
2019-02-12T23:11:26.639Z,102312.52
2019-02-12T23:13:56.436Z,102313.91
2019-02-12T23:16:24.860Z,102319.67
2019-02-12T23:18:53.312Z,102320.34
2019-02-12T23:21:21.736Z,102321.73
2019-02-12T23:29:11.863Z,102329.20
2019-02-12T23:31:41.180Z,102331.70
2019-02-12T23:34:09.692Z,102330.02
2019-02-12T23:39:25.653Z,102330.45
2019-02-12T23:42:13.330Z,102325.28
2019-02-12T23:44:41.875Z,102319.73
2019-02-12T23:47:10.308Z,102326.73
2019-02-12T23:49:39.069Z,102332.55
2019-02-12T23:52:07.545Z,102321.48
2019-02-12T23:54:55.224Z,102323.75
2019-02-12T23:57:23.693Z,102333.70
2019-02-12T23:59:52.122Z,102335.84
